Utica, Kansas
Current Conditions -  °F | °C
As of 12:55 PM on Saturday 25 Oct 2014 (Local Time) from KHYS Reporting Station
Clear Clear  
Wind Chill: 75°   Ceiling: Unl
Heat Index: 75°   Visibility: 10mi
Dew Point: 52°   Wind: 6mph
Humidity: 44%   Direction: 120°ESE
Pressure: 30.07"   Gusts: NA
Location:  38.64°N, 100.17°W
Report Text: KHYS 251755Z AUTO 12005KT 10SM CLR 24/11 A3007 RMK AO1 10240 20070 57007
Loading
Personal Weather Stations






























Interactive Weather Map
Tropical Storm Tracking
New forecast layout! Learn more

10-Day Weather Forecast

Advertisements
Track Severe Weather on mobile